createdAt,value
2018-04-14T00:00:17.225Z,0.00
2018-04-14T00:01:16.910Z,0.00
2018-04-14T00:02:16.892Z,0.00
2018-04-14T00:03:16.885Z,0.00
2018-04-14T00:04:16.910Z,0.00
2018-04-14T00:05:16.915Z,0.00
2018-04-14T00:06:16.832Z,0.00
2018-04-14T00:07:17.114Z,0.00
2018-04-14T00:08:16.796Z,0.00
2018-04-14T00:09:16.781Z,0.00
2018-04-14T00:10:16.913Z,0.00
2018-04-14T00:11:16.779Z,0.00
2018-04-14T00:12:16.733Z,0.00
2018-04-14T00:13:17.016Z,0.00
2018-04-14T00:14:16.752Z,0.00
2018-04-14T00:15:16.687Z,0.00
2018-04-14T00:16:16.716Z,0.00
2018-04-14T00:17:16.650Z,0.00
2018-04-14T00:18:16.633Z,0.00
2018-04-14T00:19:16.621Z,0.00
2018-04-14T00:20:16.902Z,0.00
2018-04-14T00:21:16.586Z,0.00
2018-04-14T00:22:16.620Z,0.00
2018-04-14T00:23:16.551Z,0.00
2018-04-14T00:24:16.541Z,0.00
2018-04-14T00:25:16.520Z,0.00
2018-04-14T00:26:16.529Z,0.00
2018-04-14T00:27:16.788Z,0.00
2018-04-14T00:28:16.528Z,0.00
2018-04-14T00:30:16.452Z,0.00
2018-04-14T00:31:16.423Z,0.00
2018-04-14T00:32:16.410Z,0.00
2018-04-14T00:33:16.389Z,0.00
2018-04-14T00:34:16.728Z,0.00
2018-04-14T00:35:16.360Z,0.00
2018-04-14T00:36:16.343Z,0.00
2018-04-14T00:37:16.327Z,0.00
2018-04-14T00:38:16.315Z,0.00
2018-04-14T00:39:16.291Z,0.00
2018-04-14T00:40:16.332Z,0.00
2018-04-14T00:41:16.568Z,0.00
2018-04-14T00:42:16.244Z,0.00
2018-04-14T00:43:16.227Z,0.00
2018-04-14T00:44:16.211Z,0.00
2018-04-14T00:45:16.192Z,0.00
2018-04-14T00:46:16.227Z,0.00
2018-04-14T00:47:16.177Z,0.00
2018-04-14T00:48:16.446Z,0.00
2018-04-14T00:49:16.128Z,0.00
2018-04-14T00:50:16.115Z,0.00
2018-04-14T00:51:16.261Z,0.00
2018-04-14T00:52:16.088Z,0.00
2018-04-14T00:53:16.062Z,0.00
2018-04-14T00:54:16.351Z,0.00
2018-04-14T00:55:16.037Z,0.00
2018-04-14T00:56:16.019Z,0.00
2018-04-14T00:57:16.054Z,0.00
2018-04-14T00:58:15.985Z,0.00
2018-04-14T00:59:15.965Z,0.00
2018-04-14T01:00:16.249Z,0.00
2018-04-14T01:01:15.934Z,0.00
2018-04-14T01:03:15.952Z,0.00
2018-04-14T01:04:15.932Z,0.00
2018-04-14T01:05:15.867Z,0.00
2018-04-14T01:06:16.157Z,0.00
2018-04-14T01:08:15.825Z,0.00
2018-04-14T01:09:15.800Z,0.00
2018-04-14T01:10:16.145Z,0.00
2018-04-14T01:12:16.053Z,0.00
2018-04-14T01:13:15.740Z,0.00
2018-04-14T01:14:15.721Z,0.00
2018-04-14T01:15:15.703Z,0.00
2018-04-14T01:16:15.738Z,0.00
2018-04-14T01:17:15.675Z,0.00
2018-04-14T01:18:15.953Z,0.00
2018-04-14T01:19:15.651Z,0.00
2018-04-14T01:20:15.625Z,0.00
2018-04-14T01:21:15.607Z,0.00
2018-04-14T01:22:15.787Z,0.00
2018-04-14T01:23:15.570Z,0.00
2018-04-14T01:24:15.862Z,0.00
2018-04-14T01:25:15.540Z,0.00
2018-04-14T01:26:15.531Z,0.00
2018-04-14T01:28:15.545Z,0.00
2018-04-14T01:29:15.473Z,0.00
2018-04-14T01:30:15.766Z,0.00
2018-04-14T01:31:15.442Z,0.00
2018-04-14T01:32:15.426Z,0.00
2018-04-14T01:33:15.411Z,0.00
2018-04-14T01:34:15.441Z,0.00
2018-04-14T01:35:15.375Z,0.00
2018-04-14T01:36:15.360Z,0.00
2018-04-14T01:37:15.654Z,0.00
2018-04-14T01:38:15.324Z,0.00
2018-04-14T01:39:15.309Z,0.00
2018-04-14T01:40:15.391Z,0.00
2018-04-14T01:41:15.275Z,0.00
2018-04-14T01:42:15.257Z,0.00
2018-04-14T01:44:15.525Z,0.00
2018-04-14T01:45:15.206Z,0.00
2018-04-14T01:46:15.292Z,0.00
2018-04-14T01:47:15.177Z,0.00
2018-04-14T01:48:15.160Z,0.00
2018-04-14T01:49:15.146Z,0.00
2018-04-14T01:50:15.228Z,0.00
2018-04-14T01:51:15.414Z,0.00
2018-04-14T01:52:15.207Z,0.00
2018-04-14T01:53:16.287Z,0.00
2018-04-14T01:54:15.363Z,0.00
2018-04-14T01:55:15.044Z,0.00
2018-04-14T01:57:15.225Z,0.00
2018-04-14T01:58:15.341Z,0.00
2018-04-14T01:59:14.986Z,0.00
2018-04-14T02:00:14.964Z,0.00
2018-04-14T02:01:14.948Z,0.00
2018-04-14T02:02:14.924Z,0.00
2018-04-14T02:03:14.910Z,0.00
2018-04-14T02:04:14.941Z,0.00
2018-04-14T02:05:15.275Z,0.00
2018-04-14T02:06:15.159Z,0.00
2018-04-14T02:08:14.904Z,0.00
2018-04-14T02:09:14.817Z,0.00
2018-04-14T02:10:14.846Z,0.00
2018-04-14T02:11:14.774Z,0.00
2018-04-14T02:12:15.061Z,0.00
2018-04-14T02:13:14.748Z,0.00
2018-04-14T02:14:14.729Z,0.00
2018-04-14T02:15:14.708Z,0.00
2018-04-14T02:16:14.793Z,0.00
2018-04-14T02:17:14.681Z,0.00
2018-04-14T02:18:14.660Z,0.00
2018-04-14T02:19:14.951Z,0.00
2018-04-14T02:20:14.631Z,0.00
2018-04-14T02:21:14.611Z,0.00
2018-04-14T02:22:14.648Z,0.00
2018-04-14T02:23:14.583Z,0.00
2018-04-14T02:24:14.559Z,0.00
2018-04-14T02:25:14.893Z,0.00
2018-04-14T02:26:14.528Z,0.00
2018-04-14T02:27:14.528Z,0.00
2018-04-14T02:28:14.645Z,0.00
2018-04-14T02:29:14.476Z,0.00
2018-04-14T02:30:14.466Z,0.00
2018-04-14T02:31:14.777Z,0.00
2018-04-14T02:32:14.433Z,0.00
2018-04-14T02:33:14.413Z,0.00
2018-04-14T02:34:14.440Z,0.00
2018-04-14T02:36:14.360Z,0.00
2018-04-14T02:37:14.346Z,0.00
2018-04-14T02:38:14.621Z,0.00
2018-04-14T02:39:14.306Z,0.00
2018-04-14T02:40:14.337Z,0.00
2018-04-14T02:41:14.272Z,0.00
2018-04-14T02:42:14.258Z,0.00
2018-04-14T02:44:14.538Z,0.00
2018-04-14T02:45:14.204Z,0.00
2018-04-14T02:46:14.241Z,0.00
2018-04-14T02:48:14.522Z,0.00
2018-04-14T02:49:14.154Z,0.00
2018-04-14T02:50:14.425Z,0.00
2018-04-14T02:51:14.116Z,0.00
2018-04-14T02:52:14.297Z,0.00
2018-04-14T02:53:14.073Z,0.00
2018-04-14T02:54:14.501Z,0.00
2018-04-14T02:55:14.040Z,0.00
2018-04-14T02:56:14.316Z,0.00
2018-04-14T02:57:14.001Z,0.00
2018-04-14T03:00:13.999Z,0.00
2018-04-14T03:02:14.251Z,0.00
2018-04-14T03:03:13.897Z,0.00
2018-04-14T03:04:13.892Z,0.00
2018-04-14T03:05:13.971Z,0.00
2018-04-14T03:06:13.898Z,0.00
2018-04-14T03:07:13.830Z,0.00
2018-04-14T03:08:13.810Z,0.00
2018-04-14T03:09:14.106Z,0.00
2018-04-14T03:10:13.831Z,0.00
2018-04-14T03:11:13.765Z,0.00
2018-04-14T03:12:13.797Z,0.00
2018-04-14T03:13:13.729Z,0.00
2018-04-14T03:14:13.710Z,0.00
2018-04-14T03:15:13.694Z,0.00
2018-04-14T03:16:13.987Z,0.00
2018-04-14T03:17:13.664Z,0.00
2018-04-14T03:18:13.694Z,0.00
2018-04-14T03:19:13.674Z,0.00
2018-04-14T03:20:13.607Z,0.00
2018-04-14T03:21:13.591Z,0.00
2018-04-14T03:22:13.577Z,0.00
2018-04-14T03:23:13.855Z,0.00
2018-04-14T03:24:13.545Z,0.00
2018-04-14T03:25:13.571Z,0.00
2018-04-14T03:26:13.508Z,0.00
2018-04-14T03:27:13.489Z,0.00
2018-04-14T03:28:13.469Z,0.00
2018-04-14T03:29:13.455Z,0.00
2018-04-14T03:30:13.739Z,0.00
2018-04-14T03:31:13.594Z,0.00
2018-04-14T03:32:13.405Z,0.00
2018-04-14T03:33:13.386Z,0.00
2018-04-14T03:34:13.367Z,0.00
2018-04-14T03:35:13.350Z,0.00
2018-04-14T03:36:13.339Z,0.00
2018-04-14T03:37:13.673Z,0.00
2018-04-14T03:38:13.306Z,0.00
2018-04-14T03:39:13.284Z,0.00
2018-04-14T03:40:13.272Z,0.00
2018-04-14T03:41:13.248Z,0.00
2018-04-14T03:42:13.232Z,0.00
2018-04-14T03:43:13.261Z,0.00
2018-04-14T03:44:13.506Z,0.00
2018-04-14T03:45:13.185Z,0.00
2018-04-14T03:46:13.511Z,0.00
2018-04-14T03:47:13.140Z,0.00
2018-04-14T03:48:13.126Z,0.00
2018-04-14T03:49:13.106Z,0.00
2018-04-14T03:50:13.098Z,0.00
2018-04-14T03:51:13.382Z,0.00
2018-04-14T03:52:13.109Z,0.00
2018-04-14T03:53:13.045Z,0.00
2018-04-14T03:54:13.073Z,0.00
2018-04-14T03:55:13.019Z,4.00
2018-04-14T03:56:12.984Z,0.00
2018-04-14T03:57:13.272Z,4.00
2018-04-14T03:58:13.112Z,4.00
2018-04-14T03:59:12.937Z,4.00
2018-04-14T04:00:12.935Z,4.00
2018-04-14T04:01:12.907Z,8.00
2018-04-14T04:02:12.891Z,8.00
2018-04-14T04:03:13.169Z,8.00
2018-04-14T04:04:12.902Z,8.00
2018-04-14T04:05:12.892Z,12.00
2018-04-14T04:06:12.820Z,12.00
2018-04-14T04:07:12.820Z,12.00
2018-04-14T04:08:12.788Z,16.00
2018-04-14T04:09:13.064Z,16.00
2018-04-14T04:11:12.778Z,24.00
2018-04-14T04:12:12.715Z,24.00
2018-04-14T04:13:12.695Z,28.00
2018-04-14T04:14:12.701Z,32.00
2018-04-14T04:15:12.961Z,28.00
2018-04-14T04:16:12.643Z,32.00
2018-04-14T04:17:12.776Z,40.00
2018-04-14T04:18:12.606Z,52.00
2018-04-14T04:19:12.641Z,60.00
2018-04-14T04:21:12.882Z,64.00
2018-04-14T04:22:12.542Z,72.00
2018-04-14T04:23:12.676Z,76.00
2018-04-14T04:24:12.504Z,88.00
2018-04-14T04:25:12.486Z,100.00
2018-04-14T04:26:12.470Z,96.00
2018-04-14T04:27:12.750Z,96.00
2018-04-14T04:28:12.495Z,136.00
2018-04-14T04:29:12.477Z,148.00
2018-04-14T04:30:12.417Z,168.00
2018-04-14T04:33:12.653Z,224.00
2018-04-14T04:34:12.330Z,196.00
2018-04-14T04:35:12.371Z,288.00
2018-04-14T04:36:12.347Z,316.00
2018-04-14T04:37:12.295Z,332.00
2018-04-14T04:38:12.264Z,344.00
2018-04-14T04:39:12.265Z,436.00
2018-04-14T04:40:12.529Z,480.00
2018-04-14T04:42:12.248Z,536.00
2018-04-14T04:43:12.175Z,588.00
2018-04-14T04:44:12.163Z,648.00
2018-04-14T04:45:12.145Z,668.00
2018-04-14T04:46:12.139Z,780.00
2018-04-14T04:47:12.420Z,852.00
2018-04-14T04:48:12.143Z,920.00
2018-04-14T04:49:12.073Z,908.00
2018-04-14T04:50:12.056Z,992.00
2018-04-14T04:52:12.181Z,1064.00
2018-04-14T04:53:12.006Z,988.00
2018-04-14T04:54:12.335Z,1128.00
2018-04-14T04:55:11.970Z,1168.00
2018-04-14T04:56:12.190Z,1172.00
2018-04-14T04:57:11.941Z,1304.00
2018-04-14T04:58:11.922Z,1388.00
2018-04-14T04:59:11.905Z,1500.00
2018-04-14T05:00:11.940Z,1732.00
2018-04-14T05:01:12.467Z,1820.00
2018-04-14T05:02:11.849Z,1648.00
2018-04-14T05:03:11.937Z,1600.00
2018-04-14T05:05:11.800Z,2140.00
2018-04-14T05:06:11.781Z,1852.00
2018-04-14T05:07:11.821Z,1988.00
2018-04-14T05:08:12.049Z,2228.00
2018-04-14T05:10:11.711Z,2132.00
2018-04-14T05:11:11.696Z,2124.00
2018-04-14T05:12:11.726Z,2104.00
2018-04-14T05:13:11.662Z,2160.00
2018-04-14T05:14:11.643Z,1892.00
2018-04-14T05:15:12.012Z,1892.00
2018-04-14T05:16:11.615Z,1952.00
2018-04-14T05:17:11.593Z,2332.00
2018-04-14T05:18:11.628Z,2404.00
2018-04-14T05:19:11.556Z,2324.00
2018-04-14T05:20:11.550Z,2264.00
2018-04-14T05:21:11.827Z,2100.00
2018-04-14T05:22:11.506Z,1868.00
2018-04-14T05:23:11.541Z,1836.00
2018-04-14T05:24:11.499Z,1848.00
2018-04-14T05:25:11.458Z,1968.00
2018-04-14T05:26:11.442Z,1948.00
2018-04-14T05:27:11.723Z,1940.00
2018-04-14T05:28:11.505Z,2048.00
2018-04-14T05:29:11.501Z,1896.00
2018-04-14T05:30:11.370Z,1776.00
2018-04-14T05:31:11.353Z,1920.00
2018-04-14T05:32:11.338Z,1692.00
2018-04-14T05:33:11.616Z,1608.00
2018-04-14T05:34:11.306Z,1424.00
2018-04-14T05:35:11.335Z,1628.00
2018-04-14T05:37:11.548Z,1676.00
2018-04-14T05:38:11.253Z,1704.00
2018-04-14T05:39:11.516Z,1628.00
2018-04-14T05:40:11.198Z,1748.00
2018-04-14T05:41:11.555Z,1664.00
2018-04-14T05:42:11.268Z,1856.00
2018-04-14T05:43:11.154Z,1512.00
2018-04-14T05:44:11.134Z,1744.00
2018-04-14T05:45:11.418Z,1448.00
2018-04-14T05:46:11.099Z,1584.00
2018-04-14T05:47:11.133Z,1736.00
2018-04-14T05:48:11.077Z,1848.00
2018-04-14T05:49:11.048Z,2092.00
2018-04-14T05:51:11.336Z,1724.00
2018-04-14T05:52:10.992Z,1856.00
2018-04-14T05:53:11.025Z,1748.00
2018-04-14T05:55:10.943Z,1820.00
2018-04-14T05:56:10.924Z,1904.00
2018-04-14T05:57:12.390Z,2168.00
2018-04-14T05:59:10.947Z,1604.00
2018-04-14T06:00:10.897Z,1820.00
2018-04-14T06:01:10.904Z,1680.00
2018-04-14T06:02:10.977Z,1656.00
2018-04-14T06:03:10.803Z,1952.00
2018-04-14T06:05:11.179Z,2368.00
2018-04-14T06:06:10.757Z,2576.00
2018-04-14T06:08:10.719Z,2620.00
2018-04-14T06:09:10.765Z,2756.00
2018-04-14T06:10:10.785Z,2744.00
2018-04-14T06:11:10.722Z,2820.00
2018-04-14T06:12:11.015Z,2760.00
2018-04-14T06:13:10.687Z,2392.00
2018-04-14T06:14:10.631Z,2320.00
2018-04-14T06:15:10.599Z,2600.00
2018-04-14T06:16:10.587Z,2520.00
2018-04-14T06:17:10.596Z,2444.00
2018-04-14T06:18:12.330Z,2588.00
2018-04-14T06:19:10.834Z,1948.00
2018-04-14T06:20:10.514Z,1800.00
2018-04-14T06:21:10.548Z,2040.00
2018-04-14T06:22:10.587Z,1912.00
2018-04-14T06:23:10.466Z,1944.00
2018-04-14T06:25:10.445Z,2028.00
2018-04-14T06:26:10.724Z,1648.00
2018-04-14T06:27:10.391Z,1560.00
2018-04-14T06:28:10.457Z,1804.00
2018-04-14T06:29:10.376Z,2192.00
2018-04-14T06:30:10.344Z,2152.00
2018-04-14T06:31:10.326Z,2004.00
2018-04-14T06:32:10.372Z,2000.00
2018-04-14T06:33:10.615Z,2372.00
2018-04-14T06:34:10.424Z,2436.00
2018-04-14T06:35:10.263Z,2392.00
2018-04-14T06:36:10.242Z,2456.00
2018-04-14T06:37:10.225Z,2620.00
2018-04-14T06:38:10.206Z,2708.00
2018-04-14T06:39:10.186Z,2900.00
2018-04-14T06:40:10.568Z,2920.00
2018-04-14T06:41:10.210Z,2796.00
2018-04-14T06:42:10.149Z,2756.00
2018-04-14T06:43:10.116Z,2804.00
2018-04-14T06:44:10.168Z,2716.00
2018-04-14T06:45:10.146Z,2516.00
2018-04-14T06:46:10.177Z,2216.00
2018-04-14T06:47:10.349Z,2564.00
2018-04-14T06:48:10.035Z,2472.00
2018-04-14T06:50:10.203Z,2728.00
2018-04-14T06:51:10.209Z,2500.00
2018-04-14T06:52:10.051Z,2652.00
2018-04-14T06:53:10.308Z,2724.00
2018-04-14T06:54:09.929Z,2760.00
2018-04-14T06:55:09.913Z,2648.00
2018-04-14T06:56:09.944Z,3024.00
2018-04-14T06:57:09.893Z,3088.00
2018-04-14T06:58:09.934Z,3184.00
2018-04-14T06:59:10.141Z,3348.00
2018-04-14T07:00:09.875Z,3232.00
2018-04-14T07:01:09.810Z,3224.00
2018-04-14T07:02:09.792Z,3240.00
2018-04-14T07:03:09.829Z,2996.00
2018-04-14T07:04:09.837Z,3168.00
2018-04-14T07:05:10.051Z,3012.00
2018-04-14T07:06:09.742Z,2828.00
2018-04-14T07:07:09.714Z,2752.00
2018-04-14T07:08:09.689Z,2416.00
2018-04-14T07:09:09.683Z,2744.00
2018-04-14T07:10:09.705Z,2008.00
2018-04-14T07:11:09.961Z,2084.00
2018-04-14T07:12:09.722Z,1696.00
2018-04-14T07:13:09.605Z,1564.00
2018-04-14T07:14:09.590Z,1484.00
2018-04-14T07:15:09.615Z,2140.00
2018-04-14T07:16:09.607Z,1832.00
2018-04-14T07:17:10.939Z,1692.00
2018-04-14T07:18:09.520Z,1920.00
2018-04-14T07:19:09.509Z,2156.00
2018-04-14T07:20:09.488Z,2448.00
2018-04-14T07:21:09.471Z,2688.00
2018-04-14T07:22:09.836Z,2492.00
2018-04-14T07:23:09.732Z,2476.00
2018-04-14T07:24:09.437Z,3144.00
2018-04-14T07:25:09.396Z,2752.00
2018-04-14T07:26:09.587Z,3312.00
2018-04-14T07:27:09.363Z,2736.00
2018-04-14T07:29:09.781Z,3124.00
2018-04-14T07:30:09.316Z,2832.00
2018-04-14T07:31:09.328Z,2880.00
2018-04-14T07:32:09.276Z,2976.00
2018-04-14T07:33:09.255Z,2820.00
2018-04-14T07:34:09.644Z,2852.00
2018-04-14T07:35:09.458Z,2568.00
2018-04-14T07:36:09.501Z,2992.00
2018-04-14T07:37:09.191Z,2776.00
2018-04-14T07:38:09.163Z,3244.00
2018-04-14T07:39:09.147Z,2816.00
2018-04-14T07:40:09.145Z,2904.00
2018-04-14T07:41:09.316Z,3328.00
2018-04-14T07:42:09.115Z,3120.00
2018-04-14T07:43:09.083Z,3952.00
2018-04-14T07:44:09.070Z,3784.00
2018-04-14T07:45:09.151Z,3760.00
2018-04-14T07:46:09.152Z,4028.00
2018-04-14T07:51:09.253Z,4348.00
2018-04-14T07:52:08.988Z,4396.00
2018-04-14T07:54:08.902Z,4196.00
2018-04-14T07:55:08.929Z,4380.00
2018-04-14T07:56:08.864Z,3844.00
2018-04-14T07:57:09.149Z,4952.00
2018-04-14T07:58:08.828Z,4672.00
2018-04-14T08:00:08.801Z,5220.00
2018-04-14T08:01:09.123Z,5884.00
2018-04-14T08:02:08.759Z,5196.00
2018-04-14T08:03:09.046Z,5724.00
2018-04-14T08:04:08.782Z,5616.00
2018-04-14T08:06:08.807Z,6488.00
2018-04-14T08:08:08.708Z,6572.00
2018-04-14T08:09:08.695Z,7024.00
2018-04-14T08:10:08.925Z,7328.00
2018-04-14T08:11:08.609Z,6460.00
2018-04-14T08:12:08.643Z,7300.00
2018-04-14T08:13:08.581Z,7408.00
2018-04-14T08:14:08.561Z,7584.00
2018-04-14T08:15:08.590Z,7200.00
2018-04-14T08:16:08.633Z,7688.00
2018-04-14T08:17:08.821Z,7792.00
2018-04-14T08:18:08.545Z,7980.00
2018-04-14T08:20:08.466Z,8648.00
2018-04-14T08:21:08.458Z,9184.00
2018-04-14T08:23:09.809Z,9136.00
2018-04-14T08:24:08.849Z,8596.00
2018-04-14T08:28:08.667Z,8580.00
2018-04-14T08:29:08.655Z,7404.00
2018-04-14T08:30:09.066Z,8244.00
2018-04-14T08:31:08.327Z,8276.00
2018-04-14T08:32:08.666Z,7964.00
2018-04-14T08:33:08.382Z,6828.00
2018-04-14T08:34:08.349Z,7240.00
2018-04-14T08:35:08.433Z,6900.00
2018-04-14T08:36:08.681Z,6716.00
2018-04-14T08:37:08.294Z,6492.00
2018-04-14T08:38:08.238Z,6708.00
2018-04-14T08:39:08.288Z,7324.00
2018-04-14T08:40:08.332Z,7292.00
2018-04-14T08:41:08.233Z,8072.00
2018-04-14T08:42:09.250Z,8436.00
2018-04-14T08:43:08.324Z,7908.00
2018-04-14T08:44:08.693Z,7628.00
2018-04-14T08:45:08.166Z,6764.00
2018-04-14T08:46:08.150Z,6944.00
2018-04-14T08:47:08.120Z,7160.00
2018-04-14T08:48:08.363Z,6500.00
2018-04-14T08:49:08.119Z,5232.00
2018-04-14T08:50:09.021Z,5344.00
2018-04-14T08:51:08.330Z,4492.00
2018-04-14T08:52:08.780Z,4900.00
2018-04-14T08:53:08.135Z,3972.00
2018-04-14T08:55:08.256Z,4984.00
2018-04-14T08:56:08.189Z,3792.00
2018-04-14T08:57:07.959Z,5932.00
2018-04-14T08:59:08.559Z,4616.00
2018-04-14T09:00:08.304Z,3332.00
2018-04-14T09:01:08.091Z,3888.00
2018-04-14T09:02:07.765Z,3936.00
2018-04-14T09:03:07.823Z,3388.00
2018-04-14T09:04:07.864Z,3364.00
2018-04-14T09:05:07.825Z,4280.00
2018-04-14T09:06:07.702Z,3000.00
2018-04-14T09:07:07.690Z,2744.00
2018-04-14T09:08:08.184Z,3160.00
2018-04-14T09:09:07.676Z,3412.00
2018-04-14T09:10:07.683Z,3704.00
2018-04-14T09:11:07.719Z,4224.00
2018-04-14T09:13:07.685Z,4096.00
2018-04-14T09:14:07.566Z,4448.00
2018-04-14T09:19:08.163Z,5652.00
2018-04-14T09:20:07.475Z,5304.00
2018-04-14T09:22:07.546Z,5216.00
2018-04-14T09:24:07.481Z,4824.00
2018-04-14T09:25:07.701Z,5384.00
2018-04-14T09:26:10.704Z,4628.00
2018-04-14T09:27:07.448Z,4728.00
2018-04-14T09:28:07.385Z,5108.00
2018-04-14T09:29:09.432Z,4712.00
2018-04-14T09:30:07.434Z,4992.00
2018-04-14T09:31:07.674Z,4212.00
2018-04-14T09:33:07.569Z,5728.00
2018-04-14T09:35:07.381Z,6812.00
2018-04-14T09:36:07.431Z,7088.00
2018-04-14T09:37:07.431Z,7516.00
2018-04-14T09:38:07.182Z,7908.00
2018-04-14T09:39:07.442Z,7708.00
2018-04-14T09:41:07.489Z,7504.00
2018-04-14T09:42:07.115Z,7264.00
2018-04-14T09:43:07.146Z,7488.00
2018-04-14T09:44:07.089Z,7088.00
2018-04-14T09:46:07.363Z,6692.00
2018-04-14T09:47:07.092Z,7036.00
2018-04-14T09:48:07.017Z,7444.00
2018-04-14T09:49:07.006Z,7396.00
2018-04-14T09:50:07.088Z,7820.00
2018-04-14T09:51:07.034Z,8056.00
2018-04-14T09:52:07.459Z,8148.00
2018-04-14T09:53:07.654Z,8112.00
2018-04-14T09:54:07.181Z,8052.00
2018-04-14T09:55:07.235Z,8132.00
2018-04-14T09:56:06.936Z,7928.00
2018-04-14T09:57:07.005Z,7740.00
2018-04-14T09:58:07.166Z,7580.00
2018-04-14T09:59:07.161Z,7736.00
2018-04-14T10:00:06.824Z,7804.00
2018-04-14T10:01:07.243Z,7524.00
2018-04-14T10:04:07.571Z,8156.00
2018-04-14T10:05:06.807Z,8520.00
2018-04-14T10:06:06.756Z,9064.00
2018-04-14T10:07:06.711Z,8740.00
2018-04-14T10:08:06.746Z,9152.00
2018-04-14T10:09:06.686Z,9172.00
2018-04-14T10:10:07.165Z,8620.00
2018-04-14T10:11:06.693Z,8632.00
2018-04-14T10:12:06.837Z,8668.00
2018-04-14T10:13:06.622Z,8292.00
2018-04-14T10:14:06.667Z,7752.00
2018-04-14T10:15:06.578Z,7408.00
2018-04-14T10:16:07.006Z,7036.00
2018-04-14T10:17:06.542Z,6416.00
2018-04-14T10:18:06.579Z,6056.00
2018-04-14T10:19:06.519Z,5780.00
2018-04-14T10:20:06.552Z,5560.00
2018-04-14T10:21:06.532Z,5232.00
2018-04-14T10:22:07.487Z,5140.00
2018-04-14T10:23:06.453Z,5096.00
2018-04-14T10:24:06.494Z,5796.00
2018-04-14T10:25:06.474Z,5532.00
2018-04-14T10:26:06.524Z,5440.00
2018-04-14T10:27:06.446Z,5540.00
2018-04-14T10:28:07.142Z,5384.00
2018-04-14T10:30:06.660Z,5984.00
2018-04-14T10:31:07.547Z,6016.00
2018-04-14T10:32:06.922Z,6396.00
2018-04-14T10:34:06.619Z,6664.00
2018-04-14T10:35:06.259Z,7760.00
2018-04-14T10:36:07.710Z,8592.00
2018-04-14T10:37:06.230Z,8840.00
2018-04-14T10:38:06.265Z,9600.00
2018-04-14T10:39:06.242Z,9508.00
2018-04-14T10:40:06.587Z,10864.00
2018-04-14T10:41:06.206Z,11532.00
2018-04-14T10:42:06.508Z,11600.00
2018-04-14T10:43:06.141Z,12360.00
2018-04-14T10:44:06.285Z,11836.00
2018-04-14T10:45:06.146Z,12776.00
2018-04-14T10:46:06.451Z,12644.00
2018-04-14T10:47:06.071Z,12408.00
2018-04-14T10:48:06.937Z,11840.00
2018-04-14T10:49:06.034Z,9964.00
2018-04-14T10:50:06.098Z,10036.00
2018-04-14T10:51:06.053Z,10824.00
2018-04-14T10:52:06.283Z,10152.00
2018-04-14T10:53:06.083Z,9308.00
2018-04-14T10:54:06.195Z,9716.00
2018-04-14T10:55:06.066Z,8628.00
2018-04-14T10:56:05.977Z,6560.00
2018-04-14T10:57:05.949Z,7520.00
2018-04-14T10:58:06.203Z,6356.00
2018-04-14T10:59:05.918Z,7044.00
2018-04-14T11:00:05.959Z,7852.00
2018-04-14T11:01:05.867Z,6472.00
2018-04-14T11:02:05.937Z,6804.00
2018-04-14T11:03:06.020Z,8560.00
2018-04-14T11:04:06.097Z,6888.00
2018-04-14T11:05:05.803Z,7692.00
2018-04-14T11:06:05.974Z,7496.00
2018-04-14T11:07:05.757Z,7672.00
2018-04-14T11:08:05.736Z,7932.00
2018-04-14T11:09:05.720Z,7872.00
2018-04-14T11:10:06.075Z,7884.00
2018-04-14T11:11:05.740Z,8300.00
2018-04-14T11:12:07.245Z,7648.00
2018-04-14T11:13:06.159Z,8036.00
2018-04-14T11:14:05.648Z,8088.00
2018-04-14T11:15:05.686Z,7744.00
2018-04-14T11:16:05.909Z,7572.00
2018-04-14T11:17:05.797Z,7880.00
2018-04-14T11:18:05.880Z,9092.00
2018-04-14T11:19:05.567Z,9336.00
2018-04-14T11:20:05.755Z,8476.00
2018-04-14T11:21:05.534Z,6644.00
2018-04-14T11:22:05.824Z,7740.00
2018-04-14T11:23:05.652Z,6436.00
2018-04-14T11:24:05.661Z,6480.00
2018-04-14T11:25:05.486Z,8532.00
2018-04-14T11:27:05.619Z,9480.00
2018-04-14T11:28:05.770Z,10352.00
2018-04-14T11:29:05.609Z,9592.00
2018-04-14T11:30:05.458Z,11404.00
2018-04-14T11:31:05.377Z,9920.00
2018-04-14T11:32:05.358Z,9744.00
2018-04-14T11:33:06.259Z,9192.00
2018-04-14T11:34:05.625Z,9508.00
2018-04-14T11:35:05.372Z,9044.00
2018-04-14T11:36:05.294Z,9004.00
2018-04-14T11:37:05.724Z,7692.00
2018-04-14T11:38:05.321Z,6900.00
2018-04-14T11:39:05.253Z,5636.00
2018-04-14T11:40:05.537Z,5972.00
2018-04-14T11:41:05.286Z,5380.00
2018-04-14T11:42:05.485Z,5432.00
2018-04-14T11:43:05.185Z,5712.00
2018-04-14T11:44:05.172Z,5868.00
2018-04-14T11:45:05.166Z,4916.00
2018-04-14T11:46:05.439Z,5808.00
2018-04-14T11:47:05.180Z,5652.00
2018-04-14T11:48:05.105Z,6180.00
2018-04-14T11:49:05.343Z,7916.00
2018-04-14T11:50:05.082Z,8572.00
2018-04-14T11:51:05.082Z,8672.00
2018-04-14T11:52:05.343Z,8036.00
2018-04-14T11:54:05.560Z,10040.00
2018-04-14T11:55:05.002Z,9268.00
2018-04-14T11:56:05.035Z,7204.00
2018-04-14T11:58:05.321Z,11124.00
2018-04-14T11:59:04.959Z,8804.00
2018-04-14T12:00:05.271Z,7308.00
2018-04-14T12:01:04.905Z,7292.00
2018-04-14T12:02:04.904Z,6780.00
2018-04-14T12:03:04.877Z,7784.00
2018-04-14T12:04:05.161Z,7520.00
2018-04-14T12:05:06.041Z,7704.00
2018-04-14T12:06:06.582Z,8116.00
2018-04-14T12:07:05.075Z,10876.00
2018-04-14T12:08:05.031Z,9924.00
2018-04-14T12:09:04.780Z,6692.00
2018-04-14T12:10:05.255Z,5904.00
2018-04-14T12:11:05.948Z,5748.00
2018-04-14T12:12:04.802Z,4884.00
2018-04-14T12:13:04.716Z,5520.00
2018-04-14T12:14:04.905Z,5708.00
2018-04-14T12:15:04.690Z,7420.00
2018-04-14T12:16:04.685Z,8012.00
2018-04-14T12:17:05.049Z,5860.00
2018-04-14T12:18:04.692Z,5928.00
2018-04-14T12:19:04.774Z,8404.00
2018-04-14T12:20:04.825Z,9988.00
2018-04-14T12:21:04.679Z,8484.00
2018-04-14T12:22:04.587Z,9880.00
2018-04-14T12:23:04.864Z,9924.00
2018-04-14T12:24:04.554Z,8440.00
2018-04-14T12:25:05.834Z,8688.00
2018-04-14T12:26:04.524Z,9368.00
2018-04-14T12:27:04.710Z,12524.00
2018-04-14T12:28:04.490Z,11232.00
2018-04-14T12:29:04.777Z,16960.00
2018-04-14T12:30:04.466Z,12968.00
2018-04-14T12:31:04.498Z,13672.00
2018-04-14T12:32:04.433Z,13348.00
2018-04-14T12:33:04.416Z,13740.00
2018-04-14T12:34:04.399Z,15720.00
2018-04-14T12:35:04.590Z,17632.00
2018-04-14T12:36:04.666Z,16004.00
2018-04-14T12:37:04.399Z,14808.00
2018-04-14T12:38:04.337Z,14472.00
2018-04-14T12:39:04.373Z,16400.00
2018-04-14T12:40:04.305Z,18464.00
2018-04-14T12:41:04.312Z,12496.00
2018-04-14T12:42:04.272Z,21856.00
2018-04-14T12:43:04.613Z,27968.00
2018-04-14T12:44:04.253Z,21792.00
2018-04-14T12:45:04.227Z,18400.00
2018-04-14T12:46:04.273Z,13428.00
2018-04-14T12:47:04.410Z,12592.00
2018-04-14T12:48:04.192Z,12180.00
2018-04-14T12:49:04.283Z,13168.00
2018-04-14T12:50:04.471Z,15388.00
2018-04-14T12:51:04.192Z,21472.00
2018-04-14T12:53:04.228Z,24864.00
2018-04-14T12:54:04.111Z,21376.00
2018-04-14T12:55:04.148Z,18176.00
2018-04-14T12:56:04.438Z,15492.00
2018-04-14T12:57:04.277Z,13572.00
2018-04-14T12:58:04.056Z,12396.00
2018-04-14T12:59:04.100Z,11060.00
2018-04-14T13:00:04.101Z,10376.00
2018-04-14T13:01:04.327Z,9712.00
2018-04-14T13:02:04.352Z,11700.00
2018-04-14T13:03:05.203Z,11676.00
2018-04-14T13:04:03.974Z,12840.00
2018-04-14T13:05:03.969Z,13588.00
2018-04-14T13:06:03.950Z,15372.00
2018-04-14T13:07:03.942Z,15324.00
2018-04-14T13:08:04.281Z,16496.00
2018-04-14T13:09:03.920Z,14980.00
2018-04-14T13:10:03.902Z,15132.00
2018-04-14T13:11:04.076Z,12524.00
2018-04-14T13:12:04.073Z,12264.00
2018-04-14T13:13:03.866Z,9396.00
2018-04-14T13:14:04.381Z,9748.00
2018-04-14T13:15:03.884Z,9896.00
2018-04-14T13:17:03.861Z,10800.00
2018-04-14T13:18:03.793Z,10136.00
2018-04-14T13:19:03.801Z,9012.00
2018-04-14T13:20:04.607Z,8800.00
2018-04-14T13:21:03.749Z,9364.00
2018-04-14T13:22:03.753Z,10072.00
2018-04-14T13:23:03.771Z,10720.00
2018-04-14T13:24:03.709Z,12604.00
2018-04-14T13:25:03.753Z,13688.00
2018-04-14T13:26:04.420Z,11128.00
2018-04-14T13:27:04.222Z,8368.00
2018-04-14T13:28:03.656Z,6776.00
2018-04-14T13:29:04.502Z,6828.00
2018-04-14T13:30:04.027Z,6896.00
2018-04-14T13:32:03.930Z,6448.00
2018-04-14T13:33:03.587Z,6776.00